Weather at Mezzeh Airport

Public forecast

Using degrees Celsius for public forecast. Weather courtesy of forecast.io.

Closest aviation weather report (METAR) to Mezzeh Airport

Closest report is Damascus International Airport, 15.2 nm (28.1 km) ESE.

2024/05/28 01:00 (retrieved 22 minutes ago)

OSDI 280100Z 00000KT CAVOK 17/13 Q1013

Closest aviation forecast (TAF) to Mezzeh Airport

Forecast is more than 6 hours old.

Closest forecast is Erbil International Airport, 415.6 nm (769.7 km) ENE.

2024/05/27 18:03 (retrieved 7 hours ago)

TAF ORER 271700Z 2718/2818 23004KT 8000 NSC BECMG 2720/2722 VRB02KT